Decoded Metar for OIKQ (GHESHM I. in IRAN) (IATA:N/A) | Meteo·Mobile Aviation Weather
aviador You're here:

OIKQ Decoded Metar

GHESHM I. in IRAN
Report Time2019-04-19 22:00:00
UTC Time2019-04-19 22:15:10
Flight Rules mvfr MVFR
WindCalm
Visibility5000 m
Phenomena:Mist
Clouds:N/A
Expected CloudBase > 1,200 ft AGL from Temp-Dew spread
CeilingNone
Temp22°C (ISA +7)
Dew Point19°C (83% RH)
QNH1007 hPa
Density Alt1,358 ft
Elevation39 ft
Report Wrong Elevation
Raw Report
METAR OIKQ 192200Z 00000KT 5000 BR NSC 22/19 Q1007=####018000755####
SAZA31 FAPR 192200

Extra information for OIKQ:More info

Metar Taf Metar & Taf Last 4 Metars F.Rules Stats Wind Profile Meteogram Temp Stats Airport Information Weather charts Add Link Nearby VenuesMetar ALERT Operation Metar Decoded Social comments